Scroll down
FLIGHT INFORMATION
Air New Zealand

ANZ45

At Arrival Gate

NFFN
 NZAA
DATE: 2021-07-13
GATE: 
GATE DEPARTURE: 22:48
TAKEOFF: 23:01
DATE: 2021-07-14
GATE:  -
LANDING: 01:39
GATE ARRIVAL: 01:51
FLIGHT DATA
Crew: 
Speed: 
932 kph
Altitude: 
37,033 ft
Stage Length: 
2,156.4 km
Block Time: 
3 hrs
Flight Time: 
2.6 hrs
Fuel Used: 
19,912 kg
Cleared Route: NFFN AGTOS AGTEM POREN SAKLO NISET KALAG NZAA
TRACK DATA
50,000 ft 1,000 kts
AIRCRAFT INFO AND CUMULATIVE STATS
Aircraft Type: 
B77W
Registration: 
SELCAL: 
DJHR
MSN/LN: 
39041 / 972
Operator: 
Total Flights: 
1
Total Block Time: 
3 hrs
Total Flight Time: 
2.6 hrs
Total Fuel Used: 
19,912 kg
DATALINK LOG | Newest first | Current as of: 2022-08-16 01:23:39
LABEL SEQUENCE CONTENT Dn/Up
QD044601:51 33.8▼ Dn
QC523701:39▼ Dn
2U0233NZAA 120000Z AUTO 14011KT 9999 BKN042/// 11/06 Q1009 BECMG 12015G25KT▲ Up
2S1403NZAA▼ Dn
QB243423:01▼ Dn
QA112122:48 77.8▼ Dn
A30019CLEARED TO NZAA VIA FOXTRO AGTOS A578 KALAG EXOP9B. SQUAWK 7367.▲ Up
B30010NFFN NZAA O ▼ Dn
Q05808[LINK ACK]▲ Up
Q05808[LINK TEST]▼ Dn


AIRCRAFT HISTORY
FLIGHT DATE FLIGHT NO. ORIGIN DESTINATION CLEARED ROUTE BLOCK TIME FLIGHT TIME FUEL USED PILOT
2021-07-13ANZ45NFFN NZAA NFFN AGTOS AGTEM POREN SAKLO NISET KALAG NZAA3 hrs2.6 hrs43,899 lbMike Dryden